Latest Weather Observations for Canberra

IDN60801

Issued at 3:02 pm EST Wednesday 19 June 2019 (issued every 10 minutes, with the page automatically refreshed every 10 minutes)

About weather observations | Map of weather stations | Latest weather observations for NSW | Other Formats
Station Details ID: 070351 Name: CANBERRA AIRPORT Lat: -35.31 Lon: 149.20 Height: 577.05 m
Data from the previous 72 hours. | See also: Recent months at Canberra
Date/Time
EST
Temp
°C
App
Temp
°C
Dew
Point
°C
Rel
Hum
%
Delta-T
°C
Wind Press
QNH
hPa
Press
MSL
hPa
Rain since
9am
mm
Dir  Spd
km/h
Gust
km/h
Spd
kts
Gust
kts
19/03:00pm 11.2 7.4 -0.6 44 4.9 NNW 9 11 5 6 1021.5 1022.5 0.0
19/02:30pm 11.3 6.5 0.4 47 4.6 NW 15 22 8 12 1021.5 1022.5 0.0
19/02:00pm 11.5 7.5 -2.3 38 5.5 N 9 13 5 7 1021.5 1022.5 0.0
19/01:30pm 11.1 6.4 -1.6 41 5.2 NW 13 17 7 9 1021.7 1022.6 0.0
19/01:00pm 10.9 6.6 -1.5 42 5.0 WNW 11 17 6 9 1021.8 1022.7 0.0
19/12:30pm 10.5 6.6 -1.2 44 4.8 WNW 9 15 5 8 1022.1 1023.1 0.0
19/12:00pm 9.8 5.2 -1.3 46 4.5 WNW 13 19 7 10 1022.5 1023.5 0.0
19/11:30am 9.3 4.4 -0.8 49 4.1 SSW 15 19 8 10 1022.8 1023.8 0.0
19/11:00am 8.5 4.1 0.5 57 3.3 SW 13 20 7 11 1023.2 1024.2 0.0
19/10:30am 6.8 3.5 2.3 73 1.9 W 9 13 5 7 1023.3 1024.3 0.0
19/10:00am 5.3 3.7 2.3 81 1.3 CALM 0 0 0 0 1023.6 1024.6 0.0
19/09:30am 3.8 1.7 1.8 87 0.8 ESE 2 7 1 4 1023.4 1024.5 0.0
19/09:00am 2.2 0.4 1.5 95 0.3 CALM 0 0 0 0 1023.1 1024.1 0.4
19/08:30am 0.3 -1.7 0.2 99 0.0 CALM 0 0 0 0 1022.8 1023.8 0.4
19/08:00am -1.3 -3.5 -1.4 99 0.0 CALM 0 0 0 0 1022.5 1023.5 0.2
19/07:30am -2.3 -4.6 -2.4 99 -0.1 CALM 0 0 0 0 1022.3 1023.3 0.2
19/07:00am -2.1 -4.4 -2.2 99 -0.1 CALM 0 0 0 0 1022.0 1023.0 0.2
19/06:30am -1.6 -5.9 -1.7 99 0.0 SE 11 11 6 6 1021.8 1022.7 0.2
19/06:28am -2.2 -6.2 -2.3 99 -0.1 SE 9 11 5 6 1021.8 1022.7 0.2
19/06:00am -1.2 -5.5 -1.3 99 0.0 N 11 11 6 6 1021.1 1022.1 0.2
19/05:50am -1.1 -5.3 -1.2 99 0.0 N 11 11 6 6 1020.9 1021.9 0.2
19/05:30am -0.5 -2.9 -0.6 99 0.0 SSE 2 7 1 4 1020.5 1021.4 0.2
19/05:00am -1.1 -4.6 -1.2 99 0.0 S 7 9 4 5 1020.4 1021.3 0.2
19/04:30am -1.4 -4.0 -1.5 99 0.0 S 2 7 1 4 1020.3 1021.2 0.2
19/04:00am -0.6 -3.1 -0.7 99 0.0 ESE 2 7 1 4 1020.2 1021.1 0.2
19/03:30am 0.2 -3.1 0.1 99 0.0 N 7 9 4 5 1020.3 1021.2 0.2
19/03:00am 0.6 -3.0 0.5 99 0.0 ENE 9 11 5 6 1020.2 1021.1 0.2
19/02:30am 1.7 -1.7 1.6 99 0.0 SE 9 15 5 8 1020.1 1021.0 0.2
19/02:00am 2.2 -0.8 2.1 99 0.0 NNE 7 9 4 5 1019.4 1020.4 0.2
19/01:30am 2.3 -1.5 2.0 98 0.1 NNE 11 13 6 7 1019.5 1020.5 0.2
19/01:00am 2.7 -1.4 2.3 97 0.2 SE 13 17 7 9 1019.6 1020.6 0.2
19/12:30am 4.2 1.6 3.0 92 0.5 NW 6 9 3 5 1019.5 1020.5 0.2
19/12:00am 5.0 2.2 3.2 88 0.8 N 7 11 4 6 1019.5 1020.5 0.2
 
Date/Time
EST
Temp
°C
App
Temp
°C
Dew
Point
°C
Rel
Hum
%
Delta-T
°C
Wind Press
QNH
hPa
Press
MSL
hPa
Rain since
9am
mm
Dir  Spd
km/h
Gust
km/h
Spd
kts
Gust
kts
18/11:30pm 6.1 3.2 4.9 92 0.5 NNE 9 13 5 7 1019.7 1020.7 0.2
18/11:00pm 5.8 2.9 4.9 94 0.4 N 9 11 5 6 1019.4 1020.4 0.2
18/10:30pm 6.5 3.3 5.1 91 0.6 NW 11 15 6 8 1019.3 1020.3 0.2
18/10:00pm 7.4 2.8 5.5 88 0.9 NW 19 26 10 14 1019.5 1020.5 0.2
18/09:30pm 6.9 4.1 5.1 88 0.8 NNW 9 11 5 6 1019.3 1020.3 0.2
18/09:00pm 7.0 3.8 5.0 87 0.9 WNW 11 19 6 10 1019.4 1020.4 0.0
18/08:30pm 7.1 3.6 3.7 79 1.5 N 11 15 6 8 1019.5 1020.5 0.0
18/08:00pm 7.4 2.7 3.1 74 1.9 N 17 19 9 10 1019.4 1020.4 0.0
18/07:30pm 7.1 2.8 3.2 76 1.7 N 15 19 8 10 1019.5 1020.5 0.0
18/07:00pm 6.4 2.6 1.9 73 1.9 NNE 11 13 6 7 1019.4 1020.4 0.0
18/06:30pm 6.9 2.3 1.8 70 2.2 NNW 15 17 8 9 1019.2 1020.2 0.0
18/06:00pm 7.2 2.9 1.1 65 2.5 NW 13 15 7 8 1019.0 1019.9 0.0
18/05:30pm 8.8 3.4 1.5 60 3.1 NW 19 24 10 13 1018.7 1019.6 0.0
18/05:00pm 9.7 4.1 1.4 56 3.6 WNW 20 28 11 15 1018.4 1019.3 0.0
18/04:30pm 10.5 4.5 1.3 53 4.0 WNW 22 33 12 18 1018.1 1019.0 0.0
18/04:00pm 11.8 6.3 0.6 46 4.8 WNW 19 32 10 17 1017.8 1018.8 0.0
18/03:30pm 11.5 6.2 1.7 51 4.3 NW 19 26 10 14 1017.8 1018.8 0.0
18/03:00pm 11.5 5.6 3.8 59 3.5 NW 24 30 13 16 1018.0 1018.9 0.0
18/02:30pm 12.3 6.5 4.5 59 3.7 NW 24 32 13 17 1018.0 1018.9 0.0
18/02:00pm 13.1 7.8 5.0 58 3.9 NW 22 30 12 16 1018.0 1018.9 0.0
18/01:30pm 12.2 6.7 5.8 65 3.1 NNW 24 30 13 16 1018.3 1019.2 0.0
18/01:00pm 12.4 8.3 6.2 66 3.0 NW 17 26 9 14 1018.5 1019.4 0.0
18/12:30pm 12.0 8.1 6.9 71 2.5 NNW 17 20 9 11 1019.1 1020.1 0.0
18/12:00pm 10.9 8.1 7.0 77 1.9 NNW 11 19 6 10 1019.7 1020.7 0.0
18/11:30am 9.2 7.4 7.0 86 1.1 NNW 6 11 3 6 1020.3 1021.2 0.0
18/11:00am 8.3 6.7 6.4 88 0.9 N 4 9 2 5 1020.6 1021.6 0.0
18/10:30am 7.1 6.2 5.9 92 0.6 CALM 0 0 0 0 1021.1 1022.1 0.0
18/10:00am 6.2 5.2 5.5 95 0.3 CALM 0 0 0 0 1021.3 1022.3 0.0
18/09:30am 5.7 4.3 5.6 99 0.0 ESE 2 6 1 3 1021.3 1022.3 0.0
18/09:00am 4.9 2.6 4.8 99 0.0 E 6 9 3 5 1021.1 1022.1 0.0
18/08:30am 4.1 2.8 4.0 99 0.0 CALM 0 0 0 0 1021.1 1022.1 0.0
18/08:26am 3.9 2.2 3.8 99 0.0 E 2 6 1 3 1021.1 1022.1 0.0
18/08:00am 2.8 1.2 2.7 99 0.0 CALM 0 0 0 0 1020.8 1021.8 0.0
18/07:54am 2.5 0.9 2.4 99 0.0 CALM 0 0 0 0 1020.9 1021.9 0.0
18/07:50am 2.1 0.4 2.0 99 0.0 CALM 0 0 0 0 1020.9 1021.9 0.0
18/07:30am 1.5 -0.3 1.4 99 0.0 CALM 0 0 0 0 1021.0 1022.0 0.0
18/07:27am 1.1 -0.7 1.0 99 0.0 CALM 0 0 0 0 1021.0 1022.0 0.0
18/07:08am 1.3 -0.5 1.2 99 0.0 CALM 0 0 0 0 1020.8 1021.8 0.0
18/07:00am 0.9 -1.0 0.8 99 0.0 CALM 0 0 0 0 1020.8 1021.8 0.0
18/06:39am 0.8 -1.1 0.7 99 0.0 CALM 0 0 0 0 1020.9 1021.9 0.0
18/06:30am 1.1 -0.7 1.0 99 0.0 CALM 0 0 0 0 1020.7 1021.7 0.0
18/06:26am 1.1 -0.7 1.0 99 0.0 CALM 0 0 0 0 1020.7 1021.7 0.0
18/06:22am 1.1 -0.7 1.0 99 0.0 CALM 0 0 0 0 1020.6 1021.6 0.0
18/06:10am 1.5 -0.3 1.4 99 0.0 CALM 0 0 0 0 1020.5 1021.4 0.0
18/06:00am 1.1 -0.7 1.0 99 0.0 CALM 0 0 0 0 1020.6 1021.6 0.0
18/05:53am 0.8 -1.1 0.7 99 0.0 CALM 0 0 0 0 1020.6 1021.6 0.0
18/05:30am 1.2 -0.6 1.1 99 0.0 CALM 0 0 0 0 1020.6 1021.6 0.0
18/05:27am 1.4 -0.4 1.3 99 0.0 CALM 0 0 0 0 1020.6 1021.6 0.0
18/05:26am 1.5 -0.3 1.4 99 0.0 CALM 0 0 0 0 1020.6 1021.6 0.0
18/05:17am 1.4 -0.4 1.3 99 0.0 CALM 0 0 0 0 1020.6 1021.6 0.0
18/05:15am 1.3 -0.5 1.2 99 0.0 CALM 0 0 0 0 1020.5 1021.4 0.0
18/05:14am 1.3 -0.5 1.2 99 0.0 CALM 0 0 0 0 1020.5 1021.4 0.0
18/05:05am 1.2 -0.6 1.1 99 0.0 CALM 0 0 0 0 1020.5 1021.4 0.0
18/05:00am 1.5 -0.6 1.4 99 0.0 E 2 6 1 3 1020.6 1021.6 0.0
18/04:44am 1.8 -1.2 1.7 99 0.0 E 7 9 4 5 1020.6 1021.6 0.0
18/04:30am 1.4 -0.8 1.3 99 0.0 E 2 9 1 5 1020.6 1021.6 0.0
18/04:14am 1.4 -0.4 1.3 99 0.0 CALM 0 6 0 3 1020.7 1021.7 0.0
18/04:00am 1.3 -1.6 1.2 99 0.0 E 6 7 3 4 1020.6 1021.6 0.0
18/03:30am 2.2 -0.8 2.1 99 0.0 E 7 7 4 4 1020.5 1021.4 0.0
18/03:00am 2.9 -0.3 2.8 99 0.0 NNE 9 9 5 5 1020.9 1021.9 0.0
18/02:30am 3.0 1.1 2.9 99 0.0 NNW 2 9 1 5 1021.2 1022.2 0.0
18/02:00am 3.4 0.5 2.7 95 0.3 NNW 7 9 4 5 1021.1 1022.1 0.0
18/01:30am 4.8 1.9 4.5 98 0.1 N 9 11 5 6 1021.1 1022.1 0.0
18/01:00am 5.6 3.2 5.2 97 0.2 NNW 7 9 4 5 1021.8 1022.7 0.0
18/12:30am 6.2 3.2 5.8 97 0.2 ESE 11 13 6 7 1022.1 1023.1 0.0
18/12:00am 6.0 3.7 5.6 97 0.2 SSE 7 9 4 5 1022.5 1023.5 0.0
 
Date/Time
EST
Temp
°C
App
Temp
°C
Dew
Point
°C
Rel
Hum
%
Delta-T
°C
Wind Press
QNH
hPa
Press
MSL
hPa
Rain since
9am
mm
Dir  Spd
km/h
Gust
km/h
Spd
kts
Gust
kts
17/11:30pm 5.5 3.3 5.2 98 0.1 ESE 6 7 3 4 1022.6 1023.6 0.0
17/11:00pm 5.1 3.9 4.4 95 0.3 CALM 0 0 0 0 1022.7 1023.7 0.0
17/10:30pm 5.1 3.8 4.2 94 0.4 CALM 0 0 0 0 1022.9 1023.9 0.0
17/10:00pm 5.1 3.8 4.2 94 0.4 CALM 0 0 0 0 1022.9 1023.9 0.0
17/09:30pm 4.8 2.4 4.5 98 0.1 ESE 6 7 3 4 1022.8 1023.8 0.0
17/09:00pm 3.6 0.9 2.7 94 0.4 E 6 11 3 6 1022.9 1023.9 0.0
17/08:30pm 4.6 2.8 3.6 93 0.4 E 2 6 1 3 1022.7 1023.7 0.0
17/08:00pm 5.4 2.5 4.4 93 0.4 E 9 11 5 6 1022.5 1023.5 0.0
17/07:30pm 6.3 4.0 4.6 89 0.8 ESE 6 9 3 5 1022.3 1023.3 0.0
17/07:00pm 7.3 5.4 4.8 84 1.1 ESE 4 9 2 5 1022.2 1023.2 0.0
17/06:30pm 8.1 5.8 4.9 80 1.5 NNE 6 9 3 5 1021.9 1022.8 0.0
17/06:00pm 8.5 6.0 4.7 77 1.7 ENE 7 7 4 4 1021.7 1022.6 0.0
17/05:30pm 9.4 6.1 4.8 73 2.1 ESE 11 13 6 7 1021.4 1022.4 0.0
17/05:00pm 11.4 7.4 5.1 65 3.0 E 15 19 8 10 1021.2 1022.2 0.0
17/04:30pm 12.2 8.6 5.1 62 3.4 E 13 17 7 9 1021.1 1022.1 0.0
17/04:00pm 13.5 10.0 5.4 58 3.9 E 13 17 7 9 1021.1 1022.1 0.0
17/03:30pm 13.5 9.9 5.2 57 4.0 E 13 19 7 10 1021.2 1022.2 0.0
17/03:00pm 14.2 11.7 5.0 54 4.4 SSW 7 7 4 4 1021.2 1022.2 0.0
17/02:30pm 15.4 14.1 5.9 53 4.7 ENE 2 6 1 3 1021.0 1022.0 0.0
17/02:00pm 13.8 11.4 5.4 57 4.1 E 7 11 4 6 1021.0 1022.0 0.0
17/01:30pm 14.6 11.7 4.6 51 4.8 SE 9 15 5 8 1021.2 1022.2 0.0
17/01:00pm 13.1 9.3 4.0 54 4.2 ESE 13 17 7 9 1021.5 1022.5 0.0
17/12:30pm 13.0 8.9 4.2 55 4.1 S 15 22 8 12 1021.9 1022.8 0.0
17/12:00pm 12.1 8.2 3.3 55 4.0 SE 13 20 7 11 1022.3 1023.3 0.0
17/11:30am 12.0 8.8 3.3 55 4.0 SSE 9 13 5 7 1022.7 1023.7 0.0
17/11:00am 11.2 6.9 3.5 59 3.5 SSE 15 19 8 10 1023.1 1024.1 0.0
17/10:30am 9.9 5.1 2.7 61 3.2 S 17 24 9 13 1023.2 1024.2 0.0
17/10:00am 8.2 3.6 3.7 73 2.0 SE 17 22 9 12 1023.3 1024.3 0.0
17/09:30am 7.1 2.4 3.3 77 1.7 SE 17 22 9 12 1023.2 1024.2 0.0
17/09:00am 6.1 4.7 3.8 85 1.0 CALM 0 0 0 0 1023.4 1024.5 0.0
17/08:30am 3.8 2.0 3.5 98 0.1 SE 2 6 1 3 1023.4 1024.5 0.0
17/08:00am 3.1 0.3 1.9 92 0.5 ESE 6 7 3 4 1023.0 1024.0 0.0
17/07:30am 2.8 -0.2 1.9 94 0.4 E 7 9 4 5 1022.7 1023.7 0.0
17/07:00am 2.8 1.1 1.9 94 0.4 CALM 0 6 0 3 1022.4 1023.4 0.0
17/06:30am 3.2 1.6 2.5 95 0.3 CALM 0 0 0 0 1022.1 1023.1 0.0
17/06:00am 2.4 -1.0 1.8 96 0.2 ESE 9 11 5 6 1022.1 1023.1 0.0
17/05:30am 2.8 -1.8 1.8 93 0.4 SE 15 19 8 10 1022.1 1023.1 0.0
17/05:00am 2.4 -1.0 1.8 96 0.2 ESE 9 11 5 6 1022.0 1023.0 0.0
17/04:30am 3.2 1.7 2.8 97 0.2 CALM 0 6 0 3 1021.7 1022.6 0.0
17/04:00am 1.8 -1.7 1.1 95 0.3 NW 9 11 5 6 1021.7 1022.6 0.0
17/03:30am 3.6 0.3 2.7 94 0.4 SE 9 13 5 7 1021.5 1022.5 0.0
17/03:00am 4.0 0.1 3.4 96 0.3 SE 13 17 7 9 1021.5 1022.5 0.0
17/02:30am 4.1 1.0 3.4 95 0.3 SE 9 11 5 6 1021.9 1022.8 0.0
17/02:00am 4.5 3.1 3.6 94 0.4 CALM 0 0 0 0 1022.1 1023.1 0.0
17/01:30am 4.9 3.6 4.2 95 0.3 CALM 0 0 0 0 1022.0 1023.0 0.0
17/01:00am 4.4 3.0 3.5 94 0.4 CALM 0 4 0 2 1022.1 1023.1 0.0
17/12:30am 4.4 2.7 4.0 97 0.2 SE 2 7 1 4 1022.4 1023.4 0.0
17/12:00am 4.4 2.2 3.5 94 0.4 SSE 4 7 2 4 1022.4 1023.4 0.0
 
Date/Time
EST
Temp
°C
App
Temp
°C
Dew
Point
°C
Rel
Hum
%
Delta-T
°C
Wind Press
QNH
hPa
Press
MSL
hPa
Rain since
9am
mm
Dir  Spd
km/h
Gust
km/h
Spd
kts
Gust
kts
16/11:30pm 5.2 2.9 4.8 97 0.2 SE 6 7 3 4 1022.5 1023.5 0.0
16/11:00pm 4.6 2.1 4.5 99 0.0 SE 7 9 4 5 1022.6 1023.6 0.0
16/10:30pm 4.2 1.7 3.5 95 0.3 N 6 7 3 4 1022.5 1023.5 0.0
16/10:00pm 5.9 4.9 5.5 97 0.2 CALM 0 0 0 0 1022.3 1023.3 0.0
16/09:30pm 6.7 5.9 6.3 97 0.2 CALM 0 0 0 0 1022.3 1023.3 0.0
16/09:00pm 6.7 5.9 6.3 97 0.2 CALM 0 0 0 0 1022.2 1023.2 0.0
16/08:30pm 6.8 5.9 6.1 95 0.3 CALM 0 0 0 0 1022.0 1023.0 0.0
16/08:00pm 6.9 4.6 5.8 93 0.5 N 7 7 4 4 1022.0 1023.0 0.0
16/07:30pm 6.9 5.6 5.8 93 0.5 ENE 2 7 1 4 1021.8 1022.7 0.0
16/07:00pm 7.1 4.5 5.9 92 0.6 E 9 11 5 6 1021.4 1022.4 0.0
16/06:30pm 7.0 4.2 5.2 88 0.8 SE 9 9 5 5 1021.2 1022.2 0.0
16/06:00pm 8.8 6.6 5.4 79 1.6 NNW 6 9 3 5 1021.0 1022.0 0.0
16/05:30pm 9.8 7.7 5.6 75 2.0 NE 6 9 3 5 1020.9 1021.9 0.0
16/05:00pm 10.6 8.4 5.4 70 2.5 NNE 6 7 3 4 1020.6 1021.6 0.0
16/04:30pm 10.9 8.2 5.7 70 2.5 NNE 9 11 5 6 1020.6 1021.6 0.0
16/04:00pm 11.8 8.6 5.0 63 3.2 ENE 11 15 6 8 1020.4 1021.3 0.0
16/03:30pm 12.6 10.1 4.8 59 3.7 E 7 13 4 7 1020.4 1021.3 0.0

Other formats

Comma delimited format used in spreadsheet applications
http://www.bom.gov.au/fwo/IDN60801/IDN60801.94926.axf

JavaScript Object Notation format (JSON) in row-major order
http://www.bom.gov.au/fwo/IDN60801/IDN60801.94926.json

Data quality

Most of these data are generated automatically and are frequently updated. Quality checks on data are not normally performed. It is possible for incorrect values to appear. Refer to information at About Latest Weather Observations and please check the disclaimer before using these data.